createdAt,value
2018-11-03T00:01:53.127Z,27.37
2018-11-03T00:04:21.745Z,26.87
2018-11-03T00:06:50.369Z,28.27
2018-11-03T00:09:19.011Z,26.47
2018-11-03T00:11:47.625Z,24.27
2018-11-03T00:14:16.245Z,24.10
2018-11-03T00:16:44.765Z,28.97
2018-11-03T00:19:13.431Z,29.83
2018-11-03T00:21:42.058Z,26.43
2018-11-03T00:24:10.878Z,35.73
2018-11-03T00:26:39.465Z,26.20
2018-11-03T00:29:08.050Z,24.23
2018-11-03T00:31:36.594Z,24.97
2018-11-03T00:34:05.520Z,22.27
2018-11-03T00:36:34.155Z,22.23
2018-11-03T00:39:02.993Z,21.93
2018-11-03T00:41:31.541Z,24.07
2018-11-03T00:44:00.117Z,24.77
2018-11-03T00:46:28.652Z,23.87
2018-11-03T00:48:57.180Z,25.83
2018-11-03T00:51:25.786Z,27.30
2018-11-03T00:53:54.345Z,25.73
2018-11-03T00:56:23.126Z,27.50
2018-11-03T00:58:51.730Z,26.90
2018-11-03T01:01:20.269Z,31.53
2018-11-03T01:03:48.829Z,34.70
2018-11-03T01:06:17.415Z,30.23
2018-11-03T01:08:45.962Z,28.00
2018-11-03T01:11:14.713Z,26.37
2018-11-03T01:13:43.430Z,25.03
2018-11-03T01:16:11.970Z,24.93
2018-11-03T01:18:40.562Z,27.60
2018-11-03T01:21:09.141Z,27.53
2018-11-03T01:23:37.724Z,27.10
2018-11-03T01:26:06.475Z,26.67
2018-11-03T01:28:35.888Z,26.23
2018-11-03T01:31:04.501Z,27.30
2018-11-03T01:33:33.029Z,26.07
2018-11-03T01:36:01.654Z,27.50
2018-11-03T01:38:30.207Z,27.93
2018-11-03T01:40:58.732Z,28.87
2018-11-03T01:43:27.309Z,28.43
2018-11-03T01:45:55.869Z,27.53
2018-11-03T01:48:24.505Z,32.23
2018-11-03T01:50:53.086Z,32.43
2018-11-03T01:53:21.894Z,34.83
2018-11-03T01:55:50.634Z,35.17
2018-11-03T01:58:19.371Z,34.17
2018-11-03T02:00:48.105Z,33.70
2018-11-03T02:03:16.655Z,35.93
2018-11-03T02:05:45.275Z,37.80
2018-11-03T02:08:13.853Z,35.77
2018-11-03T02:10:42.437Z,35.57
2018-11-03T02:13:11.057Z,35.97
2018-11-03T02:15:39.821Z,34.30
2018-11-03T02:18:08.417Z,35.07
2018-11-03T02:20:37.001Z,34.17
2018-11-03T02:23:05.607Z,35.03
2018-11-03T02:25:34.217Z,34.77
2018-11-03T02:28:02.820Z,33.93
2018-11-03T02:30:31.567Z,33.37
2018-11-03T02:33:00.372Z,35.53
2018-11-03T02:35:29.508Z,35.50
2018-11-03T02:37:58.085Z,37.93
2018-11-03T02:40:26.673Z,37.70
2018-11-03T02:42:55.480Z,37.50
2018-11-03T02:45:24.097Z,36.10
2018-11-03T02:47:54.517Z,35.23
2018-11-03T02:50:23.122Z,37.63
2018-11-03T02:52:51.664Z,37.40
2018-11-03T02:55:20.213Z,39.60
2018-11-03T02:57:48.868Z,37.20
2018-11-03T03:00:17.652Z,36.30
2018-11-03T03:02:46.219Z,36.63
2018-11-03T03:05:14.805Z,37.23
2018-11-03T03:07:43.354Z,37.03
2018-11-03T03:10:13.106Z,38.63
2018-11-03T03:12:41.715Z,39.63
2018-11-03T03:15:11.710Z,38.73
2018-11-03T03:17:40.575Z,38.17
2018-11-03T03:20:10.990Z,38.27
2018-11-03T03:22:39.579Z,39.17
2018-11-03T03:25:09.453Z,40.60
2018-11-03T03:27:38.149Z,42.43
2018-11-03T03:30:07.391Z,43.17
2018-11-03T03:32:36.148Z,42.43
2018-11-03T03:35:04.787Z,44.37
2018-11-03T03:37:33.352Z,44.83
2018-11-03T03:40:01.916Z,43.83
2018-11-03T03:42:30.474Z,42.77
2018-11-03T03:44:59.082Z,41.77
2018-11-03T03:47:27.696Z,41.83
2018-11-03T03:49:56.422Z,43.10
2018-11-03T03:52:25.018Z,44.37
2018-11-03T03:54:53.687Z,44.63
2018-11-03T03:57:22.472Z,44.37
2018-11-03T03:59:51.084Z,44.23
2018-11-03T04:02:19.697Z,44.00
2018-11-03T04:04:48.292Z,44.93
2018-11-03T04:07:16.833Z,45.00
2018-11-03T04:09:45.364Z,44.77
2018-11-03T04:12:13.945Z,46.50
2018-11-03T04:14:42.494Z,46.60
2018-11-03T04:17:11.235Z,44.53
2018-11-03T04:19:40.128Z,44.53
2018-11-03T04:22:09.532Z,44.10
2018-11-03T04:24:38.098Z,43.97
2018-11-03T04:27:06.977Z,42.47
2018-11-03T04:29:36.932Z,39.60
2018-11-03T04:32:05.537Z,39.73
2018-11-03T04:34:34.560Z,40.57
2018-11-03T04:37:03.707Z,42.50
2018-11-03T04:39:32.330Z,44.90
2018-11-03T04:42:00.969Z,42.83
2018-11-03T04:44:29.707Z,43.00
2018-11-03T04:46:58.446Z,42.53
2018-11-03T04:49:27.122Z,42.97
2018-11-03T04:51:55.846Z,44.13
2018-11-03T04:54:24.468Z,42.83
2018-11-03T04:56:53.081Z,44.47
2018-11-03T04:59:21.654Z,43.83
2018-11-03T05:01:50.289Z,41.57
2018-11-03T05:04:18.918Z,41.67
2018-11-03T05:06:47.626Z,45.27
2018-11-03T05:09:16.323Z,43.90
2018-11-03T05:11:45.011Z,40.57
2018-11-03T05:14:13.802Z,41.40
2018-11-03T05:16:42.432Z,41.83
2018-11-03T05:19:11.169Z,43.63
2018-11-03T05:21:39.762Z,41.30
2018-11-03T05:24:08.505Z,41.90
2018-11-03T05:26:37.061Z,39.27
2018-11-03T05:29:05.933Z,39.57
2018-11-03T05:31:34.470Z,39.30
2018-11-03T05:34:03.109Z,39.63
2018-11-03T05:36:31.681Z,40.13
2018-11-03T05:39:00.233Z,40.93
2018-11-03T05:41:28.965Z,42.37
2018-11-03T05:43:57.499Z,44.60
2018-11-03T05:46:26.022Z,43.53
2018-11-03T05:48:54.820Z,43.30
2018-11-03T05:51:23.374Z,42.90
2018-11-03T05:53:52.254Z,42.13
2018-11-03T05:56:21.096Z,44.70
2018-11-03T05:58:49.668Z,41.60
2018-11-03T06:01:18.406Z,44.33
2018-11-03T06:03:47.018Z,41.27
2018-11-03T06:06:15.578Z,42.00
2018-11-03T06:08:44.169Z,41.30
2018-11-03T06:11:13.001Z,41.77
2018-11-03T06:13:41.538Z,42.50
2018-11-03T06:16:10.081Z,42.63
2018-11-03T06:18:38.653Z,44.33
2018-11-03T06:21:07.214Z,46.90
2018-11-03T06:23:35.885Z,46.03
2018-11-03T06:26:04.698Z,50.33
2018-11-03T06:28:33.561Z,45.90
2018-11-03T06:31:02.128Z,43.07
2018-11-03T06:33:31.005Z,41.70
2018-11-03T06:35:59.730Z,40.67
2018-11-03T06:38:29.154Z,40.33
2018-11-03T06:40:57.781Z,39.47
2018-11-03T06:43:26.417Z,58.63
2018-11-03T06:45:55.005Z,55.53
2018-11-03T06:48:23.700Z,113.07
2018-11-03T06:50:52.265Z,77.47
2018-11-03T06:53:21.203Z,66.93
2018-11-03T06:55:49.831Z,41.63
2018-11-03T06:58:18.377Z,40.80
2018-11-03T07:00:46.950Z,43.70
2018-11-03T07:03:15.613Z,40.53
2018-11-03T07:05:44.253Z,40.03
2018-11-03T07:08:12.829Z,41.37
2018-11-03T07:10:41.642Z,41.77
2018-11-03T07:13:10.268Z,41.73
2018-11-03T07:15:38.954Z,41.77
2018-11-03T07:18:07.535Z,40.53
2018-11-03T07:20:36.106Z,40.57
2018-11-03T07:23:05.022Z,40.60
2018-11-03T07:25:33.671Z,42.53
2018-11-03T07:28:02.426Z,56.20
2018-11-03T07:30:31.041Z,49.03
2018-11-03T07:32:59.809Z,42.37
2018-11-03T07:35:28.337Z,41.33
2018-11-03T07:37:56.887Z,42.87
2018-11-03T07:40:25.499Z,44.77
2018-11-03T07:42:54.057Z,46.13
2018-11-03T07:45:22.601Z,40.07
2018-11-03T07:47:51.215Z,40.90
2018-11-03T07:50:20.009Z,42.70
2018-11-03T07:52:48.811Z,42.83
2018-11-03T07:55:17.495Z,42.73
2018-11-03T07:57:47.288Z,44.27
2018-11-03T08:00:15.909Z,44.03
2018-11-03T08:02:44.665Z,43.33
2018-11-03T08:05:13.246Z,41.73
2018-11-03T08:07:41.885Z,41.47
2018-11-03T08:10:11.642Z,43.73
2018-11-03T08:12:40.300Z,42.77
2018-11-03T08:15:10.716Z,42.40
2018-11-03T08:17:39.986Z,46.83
2018-11-03T08:20:10.044Z,47.33
2018-11-03T08:22:38.701Z,43.63
2018-11-03T08:25:07.842Z,42.57
2018-11-03T08:27:36.794Z,39.50
2018-11-03T08:30:07.409Z,43.13
2018-11-03T08:32:36.245Z,38.20
2018-11-03T08:35:06.010Z,36.87
2018-11-03T08:37:34.671Z,38.53
2018-11-03T08:40:03.427Z,35.93
2018-11-03T08:42:32.096Z,38.60
2018-11-03T08:45:00.814Z,40.10
2018-11-03T08:47:29.616Z,37.70
2018-11-03T08:49:58.284Z,41.37
2018-11-03T08:52:26.887Z,34.97
2018-11-03T08:54:55.549Z,32.80
2018-11-03T08:57:24.402Z,34.63
2018-11-03T08:59:53.070Z,33.13
2018-11-03T09:02:21.778Z,38.03
2018-11-03T09:04:50.416Z,34.37
2018-11-03T09:07:19.131Z,34.30
2018-11-03T09:09:47.891Z,33.97
2018-11-03T09:12:17.590Z,36.13
2018-11-03T09:14:46.405Z,33.13
2018-11-03T09:17:15.429Z,29.67
2018-11-03T09:19:44.192Z,31.37
2018-11-03T09:22:12.848Z,32.50
2018-11-03T09:24:41.504Z,35.63
2018-11-03T09:27:10.173Z,31.93
2018-11-03T09:29:39.267Z,32.53
2018-11-03T09:32:08.019Z,30.93
2018-11-03T09:34:36.654Z,28.50
2018-11-03T09:37:06.205Z,36.10
2018-11-03T09:39:34.849Z,33.67
2018-11-03T09:42:03.765Z,31.33
2018-11-03T09:44:32.497Z,31.17
2018-11-03T09:47:01.182Z,29.77
2018-11-03T09:49:29.945Z,30.63
2018-11-03T09:51:58.567Z,31.40
2018-11-03T09:54:28.068Z,29.03
2018-11-03T09:56:56.633Z,27.90
2018-11-03T09:59:25.298Z,28.37
2018-11-03T10:01:54.191Z,28.83
2018-11-03T10:04:22.780Z,32.23
2018-11-03T10:06:51.459Z,28.00
2018-11-03T10:09:20.161Z,25.90
2018-11-03T10:11:48.694Z,36.73
2018-11-03T10:14:17.559Z,31.47
2018-11-03T10:16:46.142Z,29.97
2018-11-03T10:19:14.682Z,34.87
2018-11-03T10:21:43.380Z,36.43
2018-11-03T10:24:12.075Z,31.63
2018-11-03T10:26:40.636Z,36.63
2018-11-03T10:29:09.392Z,39.77
2018-11-03T10:31:38.025Z,30.33
2018-11-03T10:34:07.135Z,33.90
2018-11-03T10:36:35.733Z,41.07
2018-11-03T10:39:06.176Z,26.37
2018-11-03T10:41:34.788Z,26.83
2018-11-03T10:44:03.585Z,27.83
2018-11-03T10:46:32.388Z,29.67
2018-11-03T10:49:01.076Z,28.67
2018-11-03T10:51:29.634Z,27.70
2018-11-03T10:53:58.244Z,30.30
2018-11-03T10:56:26.857Z,29.33
2018-11-03T10:58:55.398Z,29.83
2018-11-03T11:01:29.397Z,41.00
2018-11-03T11:04:03.401Z,25.67
2018-11-03T11:06:37.401Z,30.27
2018-11-03T11:09:12.414Z,28.53
2018-11-03T11:11:46.348Z,26.93
2018-11-03T11:14:15.359Z,25.30
2018-11-03T11:16:44.091Z,26.07
2018-11-03T11:19:13.210Z,29.87
2018-11-03T11:21:41.761Z,29.27
2018-11-03T11:24:10.975Z,36.37
2018-11-03T11:26:39.609Z,25.80
2018-11-03T11:29:08.249Z,28.90
2018-11-03T11:31:36.957Z,24.93
2018-11-03T11:34:06.063Z,24.97
2018-11-03T11:36:34.746Z,27.97
2018-11-03T11:39:04.153Z,30.90
2018-11-03T11:41:32.730Z,22.13
2018-11-03T11:44:01.332Z,24.50
2018-11-03T11:46:29.950Z,22.50
2018-11-03T11:48:58.537Z,26.50
2018-11-03T11:51:27.129Z,21.87
2018-11-03T11:53:55.962Z,20.63
2018-11-03T11:56:24.689Z,18.10
2018-11-03T11:58:53.246Z,19.60
2018-11-03T12:01:21.823Z,30.03
2018-11-03T12:03:50.405Z,60.83
2018-11-03T12:06:18.965Z,34.47
2018-11-03T12:08:47.531Z,52.97
2018-11-03T12:11:16.173Z,23.57
2018-11-03T12:13:44.735Z,42.87
2018-11-03T12:16:13.582Z,59.50
2018-11-03T12:18:42.316Z,44.43
2018-11-03T12:21:10.873Z,223.70
2018-11-03T12:23:39.422Z,93.53
2018-11-03T12:26:08.366Z,52.90
2018-11-03T12:28:36.925Z,26.43
2018-11-03T12:31:05.981Z,30.53
2018-11-03T12:33:34.617Z,54.07
2018-11-03T12:36:03.229Z,26.10
2018-11-03T12:38:31.785Z,22.23
2018-11-03T12:41:00.460Z,78.70
2018-11-03T12:43:29.113Z,93.60
2018-11-03T12:45:57.734Z,21.77
2018-11-03T12:48:26.593Z,29.70
2018-11-03T12:50:55.291Z,22.23
2018-11-03T12:53:23.834Z,21.73
2018-11-03T12:55:52.490Z,23.53
2018-11-03T12:58:21.037Z,25.30
2018-11-03T13:00:49.578Z,22.47
2018-11-03T13:03:18.253Z,23.80
2018-11-03T13:05:47.038Z,24.67
2018-11-03T13:08:15.593Z,26.07
2018-11-03T13:10:44.169Z,28.70
2018-11-03T13:13:12.707Z,30.73
2018-11-03T13:15:41.265Z,26.23
2018-11-03T13:18:10.107Z,28.50
2018-11-03T13:20:38.685Z,27.13
2018-11-03T13:23:07.238Z,28.40
2018-11-03T13:25:35.825Z,30.40
2018-11-03T13:28:04.421Z,31.10
2018-11-03T13:30:32.978Z,28.73
2018-11-03T13:33:01.549Z,37.87
2018-11-03T13:35:30.127Z,28.00
2018-11-03T13:37:58.774Z,33.40
2018-11-03T13:40:27.355Z,33.20
2018-11-03T13:42:55.949Z,29.90
2018-11-03T13:45:24.494Z,40.50
2018-11-03T13:47:53.075Z,36.73
2018-11-03T13:50:21.810Z,33.43
2018-11-03T13:52:50.376Z,29.33
2018-11-03T13:55:19.022Z,31.57
2018-11-03T13:57:47.557Z,34.90
2018-11-03T14:00:17.465Z,28.67
2018-11-03T14:02:46.829Z,26.23
2018-11-03T14:05:15.757Z,27.43
2018-11-03T14:07:44.305Z,26.63
2018-11-03T14:10:14.532Z,41.57
2018-11-03T14:12:43.893Z,33.87
2018-11-03T14:15:13.963Z,34.07
2018-11-03T14:17:42.583Z,46.40
2018-11-03T14:20:12.753Z,33.77
2018-11-03T14:22:41.805Z,31.33
2018-11-03T14:25:12.126Z,28.13
2018-11-03T14:27:41.257Z,33.87
2018-11-03T14:30:11.274Z,34.07
2018-11-03T14:32:39.858Z,34.10
2018-11-03T14:35:09.205Z,37.77
2018-11-03T14:37:37.910Z,34.47
2018-11-03T14:40:08.997Z,35.13
2018-11-03T14:42:37.808Z,34.10
2018-11-03T14:45:07.503Z,43.63
2018-11-03T14:47:36.226Z,54.07
2018-11-03T14:50:05.507Z,34.77
2018-11-03T14:52:35.974Z,36.07
2018-11-03T14:55:04.686Z,38.57
2018-11-03T14:57:33.226Z,42.07
2018-11-03T15:00:02.222Z,49.23
2018-11-03T15:02:30.906Z,92.67
2018-11-03T15:04:59.544Z,106.63
2018-11-03T15:07:28.094Z,109.27
2018-11-03T15:09:56.689Z,72.57
2018-11-03T15:12:25.215Z,59.57
2018-11-03T15:14:53.794Z,87.83
2018-11-03T15:17:22.546Z,105.27
2018-11-03T15:19:51.157Z,59.60
2018-11-03T15:22:19.732Z,91.23
2018-11-03T15:24:48.501Z,66.03
2018-11-03T15:27:17.062Z,60.57
2018-11-03T15:29:45.705Z,63.43
2018-11-03T15:32:14.341Z,62.40
2018-11-03T15:34:43.151Z,68.77
2018-11-03T15:37:11.896Z,132.03
2018-11-03T15:39:40.502Z,62.40
2018-11-03T15:42:09.094Z,76.53
2018-11-03T16:02:38.067Z,67.27
2018-11-03T16:05:06.628Z,75.73
2018-11-03T16:07:35.150Z,76.67
2018-11-03T16:10:03.779Z,97.50
2018-11-03T16:12:32.478Z,111.70
2018-11-03T16:15:01.205Z,56.40
2018-11-03T16:17:29.777Z,80.77
2018-11-03T16:19:58.378Z,88.07
2018-11-03T16:22:26.956Z,80.00
2018-11-03T16:24:55.737Z,109.03
2018-11-03T16:35:06.201Z,94.73
2018-11-03T16:37:34.790Z,86.23
2018-11-03T16:40:03.463Z,62.67
2018-11-03T16:42:32.152Z,63.90
2018-11-03T16:45:00.785Z,99.93
2018-11-03T16:47:29.371Z,53.07
2018-11-03T16:49:57.950Z,56.73
2018-11-03T16:52:26.561Z,96.13
2018-11-03T16:54:55.270Z,75.43
2018-11-03T16:57:23.897Z,133.77
2018-11-03T16:59:52.545Z,110.17
2018-11-03T17:02:21.137Z,122.27
2018-11-03T17:04:49.724Z,92.47
2018-11-03T17:07:18.279Z,88.10
2018-11-03T17:09:46.820Z,73.30
2018-11-03T17:12:15.458Z,74.50
2018-11-03T17:14:44.032Z,77.07
2018-11-03T17:17:12.623Z,81.07
2018-11-03T17:19:41.230Z,76.53
2018-11-03T17:22:09.761Z,72.90
2018-11-03T17:24:38.302Z,79.63
2018-11-03T17:27:06.918Z,62.83
2018-11-03T17:29:35.483Z,62.97
2018-11-03T17:32:05.342Z,75.03
2018-11-03T17:34:34.097Z,68.93
2018-11-03T17:37:02.657Z,64.70
2018-11-03T17:39:31.304Z,66.40
2018-11-03T17:41:59.909Z,95.07
2018-11-03T17:44:28.578Z,104.93
2018-11-03T17:46:57.121Z,90.63
2018-11-03T17:49:25.782Z,136.40
2018-11-03T17:51:54.390Z,107.00
2018-11-03T17:54:22.917Z,93.43
2018-11-03T17:56:51.510Z,101.70
2018-11-03T17:59:20.046Z,62.43
2018-11-03T18:01:48.578Z,63.57
2018-11-03T18:04:17.174Z,52.73
2018-11-03T18:06:45.790Z,72.33
2018-11-03T18:09:14.360Z,77.90
2018-11-03T18:11:42.943Z,74.87
2018-11-03T18:14:11.541Z,84.97
2018-11-03T18:16:40.074Z,59.20
2018-11-03T18:19:08.658Z,71.03
2018-11-03T18:21:37.237Z,66.47
2018-11-03T18:24:05.997Z,106.03
2018-11-03T18:26:34.683Z,104.67
2018-11-03T18:29:03.385Z,108.40
2018-11-03T18:31:31.981Z,81.27
2018-11-03T18:34:00.566Z,80.90
2018-11-03T18:36:29.133Z,101.03
2018-11-03T18:38:57.705Z,122.73
2018-11-03T18:41:26.306Z,140.17
2018-11-03T18:43:54.865Z,100.50
2018-11-03T18:46:23.630Z,82.93
2018-11-03T18:48:52.398Z,68.80
2018-11-03T18:51:20.966Z,83.43
2018-11-03T18:53:49.534Z,74.53
2018-11-03T18:56:18.177Z,70.17
2018-11-03T18:58:46.717Z,61.80
2018-11-03T19:01:15.277Z,66.53
2018-11-03T19:03:43.892Z,56.37
2018-11-03T19:06:12.442Z,55.47
2018-11-03T19:08:40.988Z,55.33
2018-11-03T19:11:10.116Z,57.33
2018-11-03T19:13:38.969Z,59.17
2018-11-03T19:16:08.159Z,60.83
2018-11-03T19:18:36.928Z,57.33
2018-11-03T19:21:05.540Z,58.97
2018-11-03T19:23:34.139Z,56.17
2018-11-03T19:26:02.931Z,54.03
2018-11-03T19:28:31.465Z,56.57
2018-11-03T19:31:01.047Z,56.50
2018-11-03T19:33:32.787Z,52.57
2018-11-03T19:36:01.410Z,52.27
2018-11-03T19:38:30.103Z,48.93
2018-11-03T19:40:58.969Z,49.73
2018-11-03T19:43:27.674Z,51.07
2018-11-03T19:45:56.230Z,52.13
2018-11-03T19:48:24.923Z,52.27
2018-11-03T19:50:53.886Z,52.53
2018-11-03T19:53:22.522Z,69.90
2018-11-03T19:55:51.312Z,239.20
2018-11-03T19:58:19.955Z,86.70
2018-11-03T20:00:49.173Z,79.30
2018-11-03T20:03:17.883Z,99.57
2018-11-03T20:05:46.602Z,101.87
2018-11-03T20:08:15.194Z,122.83
2018-11-03T20:10:43.883Z,119.53
2018-11-03T20:13:12.448Z,121.50
2018-11-03T20:15:41.083Z,131.77
2018-11-03T20:18:10.008Z,92.37
2018-11-03T20:20:38.589Z,63.13
2018-11-03T20:23:07.171Z,127.97
2018-11-03T20:25:35.769Z,119.87
2018-11-03T20:28:04.374Z,93.77
2018-11-03T20:30:32.945Z,58.83
2018-11-03T20:33:01.636Z,82.43
2018-11-03T20:35:30.378Z,57.03
2018-11-03T20:37:59.041Z,53.30
2018-11-03T20:40:27.721Z,62.63
2018-11-03T20:42:56.342Z,66.30
2018-11-03T20:45:25.012Z,64.93
2018-11-03T20:47:53.599Z,74.10
2018-11-03T20:50:22.224Z,66.47
2018-11-03T20:52:50.865Z,64.20
2018-11-03T20:55:19.498Z,55.03
2018-11-03T20:57:48.083Z,51.77
2018-11-03T21:00:17.011Z,57.37
2018-11-03T21:10:28.525Z,51.57
2018-11-03T21:12:57.137Z,54.47
2018-11-03T21:15:25.726Z,52.87
2018-11-03T21:17:54.334Z,52.37
2018-11-03T21:20:22.991Z,50.07
2018-11-03T21:22:51.757Z,53.90
2018-11-03T21:25:20.443Z,52.43
2018-11-03T21:27:49.059Z,52.67
2018-11-03T21:30:17.817Z,62.27
2018-11-03T21:32:46.571Z,54.27
2018-11-03T21:35:15.284Z,52.90
2018-11-03T21:37:43.871Z,55.03
2018-11-03T21:40:12.442Z,52.50
2018-11-03T21:42:41.051Z,50.23
2018-11-03T21:45:09.975Z,49.27
2018-11-03T21:47:38.584Z,48.93
2018-11-03T21:57:49.067Z,54.00
2018-11-03T22:00:17.690Z,49.20
2018-11-03T22:02:48.790Z,50.20
2018-11-03T22:05:17.749Z,43.80
2018-11-03T22:07:46.391Z,50.30
2018-11-03T22:10:15.288Z,46.33
2018-11-03T22:12:44.198Z,49.40
2018-11-03T22:15:12.872Z,47.37
2018-11-03T22:17:42.465Z,47.43
2018-11-03T22:20:12.074Z,48.20
2018-11-03T22:22:41.227Z,45.83
2018-11-03T22:25:11.508Z,44.40
2018-11-03T22:27:40.145Z,44.83
2018-11-03T22:30:10.798Z,46.90
2018-11-03T22:32:40.114Z,46.23
2018-11-03T22:35:08.702Z,44.57
2018-11-03T22:37:37.414Z,46.67
2018-11-03T22:40:06.765Z,46.00
2018-11-03T22:42:35.530Z,44.03
2018-11-03T22:45:04.461Z,42.80
2018-11-03T22:47:33.047Z,44.33
2018-11-03T22:50:01.610Z,43.30
2018-11-03T22:52:30.233Z,44.57
2018-11-03T22:54:59.011Z,43.17
2018-11-03T22:57:27.594Z,42.23
2018-11-03T22:59:56.170Z,45.37
2018-11-03T23:02:24.712Z,43.97
2018-11-03T23:04:53.339Z,44.13
2018-11-03T23:07:21.943Z,42.30
2018-11-03T23:09:50.802Z,43.47
2018-11-03T23:12:19.412Z,42.57
2018-11-03T23:14:48.283Z,42.57
2018-11-03T23:17:16.821Z,43.33
2018-11-03T23:19:45.484Z,45.40
2018-11-03T23:22:14.099Z,43.77
2018-11-03T23:24:42.825Z,43.30
2018-11-03T23:27:11.390Z,43.40
2018-11-03T23:29:40.394Z,43.20
2018-11-03T23:32:09.115Z,44.63
2018-11-03T23:34:37.657Z,43.67
2018-11-03T23:37:06.749Z,43.03
2018-11-03T23:39:35.345Z,42.37
2018-11-03T23:42:03.974Z,43.77
2018-11-03T23:44:32.580Z,42.53
2018-11-03T23:47:01.123Z,41.47
2018-11-03T23:49:29.752Z,42.70
2018-11-03T23:51:58.372Z,41.33
2018-11-03T23:54:27.046Z,43.97
2018-11-03T23:56:55.736Z,42.13
2018-11-03T23:59:24.364Z,42.63
